<?xml version="1.0" encoding="UTF-8" standalone="no" ?>
<gpx xmlns="http://www.topografix.com/GPX/1/1" xmlns:xsi="http://www.w3.org/2001/XMLSchema-instance" xsi:schemaLocation="http://www.topografix.com/GPX/1/1 http://www.topografix.com/GPX/1/1/gpx.xsd" version="1.1" creator="VisuGPX - https://www.visugpx.com">
  <metadata>
    <name>CURRENT TRACK- 09 MAI Hermance HW</name>
    <desc><![CDATA[CURRENT TRACK- 09 MAI Hermance HW]]></desc>
  </metadata>
  <trk>
    <name><![CDATA[CURRENT TRACK- 09 MAI Hermance]]></name>
    <trkseg>
      <trkpt lat="46.26799" lon="6.25699">
        <ele>425.17</ele>
        <time>2020-05-09T13:50:54Z</time>
      </trkpt>
      <trkpt lat="46.26799" lon="6.25701">
        <ele>425.17</ele>
        <time>2020-05-09T13:56:31Z</time>
      </trkpt>
      <trkpt lat="46.26888" lon="6.25722">
        <ele>425.02</ele>
        <time>2020-05-09T13:57:36Z</time>
      </trkpt>
      <trkpt lat="46.26807" lon="6.25704">
        <ele>425.02</ele>
        <time>2020-05-09T13:58:45Z</time>
      </trkpt>
      <trkpt lat="46.26965" lon="6.25938">
        <ele>470.19</ele>
        <time>2020-05-10T13:32:19Z</time>
      </trkpt>
      <trkpt lat="46.26947" lon="6.2597">
        <ele>470.19</ele>
        <time>2020-05-10T13:32:36Z</time>
      </trkpt>
      <trkpt lat="46.26947" lon="6.25969">
        <ele>470.19</ele>
        <time>2020-05-10T13:33:55Z</time>
      </trkpt>
      <trkpt lat="46.26941" lon="6.25974">
        <ele>470.19</ele>
        <time>2020-05-10T13:35:16Z</time>
      </trkpt>
      <trkpt lat="46.26928" lon="6.25952">
        <ele>470.19</ele>
        <time>2020-05-10T13:35:42Z</time>
      </trkpt>
      <trkpt lat="46.26909" lon="6.25943">
        <ele>470.19</ele>
        <time>2020-05-10T13:35:48Z</time>
      </trkpt>
      <trkpt lat="46.26889" lon="6.25945">
        <ele>470.19</ele>
        <time>2020-05-10T13:35:54Z</time>
      </trkpt>
      <trkpt lat="46.26875" lon="6.25966">
        <ele>470.19</ele>
        <time>2020-05-10T13:36:00Z</time>
      </trkpt>
      <trkpt lat="46.26866" lon="6.2599">
        <ele>470.19</ele>
        <time>2020-05-10T13:36:05Z</time>
      </trkpt>
      <trkpt lat="46.26859" lon="6.26016">
        <ele>470.19</ele>
        <time>2020-05-10T13:36:10Z</time>
      </trkpt>
      <trkpt lat="46.26851" lon="6.26042">
        <ele>470.19</ele>
        <time>2020-05-10T13:36:16Z</time>
      </trkpt>
      <trkpt lat="46.26844" lon="6.26069">
        <ele>470.19</ele>
        <time>2020-05-10T13:36:22Z</time>
      </trkpt>
      <trkpt lat="46.26844" lon="6.26098">
        <ele>470.19</ele>
        <time>2020-05-10T13:36:28Z</time>
      </trkpt>
      <trkpt lat="46.26856" lon="6.26124">
        <ele>470.19</ele>
        <time>2020-05-10T13:36:34Z</time>
      </trkpt>
      <trkpt lat="46.26875" lon="6.26136">
        <ele>470.19</ele>
        <time>2020-05-10T13:36:40Z</time>
      </trkpt>
      <trkpt lat="46.26893" lon="6.26134">
        <ele>470.19</ele>
        <time>2020-05-10T13:36:45Z</time>
      </trkpt>
      <trkpt lat="46.2691" lon="6.26115">
        <ele>470.19</ele>
        <time>2020-05-10T13:36:51Z</time>
      </trkpt>
      <trkpt lat="46.2692" lon="6.26087">
        <ele>470.19</ele>
        <time>2020-05-10T13:36:56Z</time>
      </trkpt>
      <trkpt lat="46.26929" lon="6.2606">
        <ele>470.19</ele>
        <time>2020-05-10T13:37:00Z</time>
      </trkpt>
      <trkpt lat="46.26936" lon="6.26033">
        <ele>470.19</ele>
        <time>2020-05-10T13:37:04Z</time>
      </trkpt>
      <trkpt lat="46.26946" lon="6.26005">
        <ele>470.19</ele>
        <time>2020-05-10T13:37:09Z</time>
      </trkpt>
      <trkpt lat="46.26943" lon="6.25974">
        <ele>470.19</ele>
        <time>2020-05-10T13:37:14Z</time>
      </trkpt>
      <trkpt lat="46.26951" lon="6.25967">
        <ele>470.19</ele>
        <time>2020-05-10T13:41:59Z</time>
      </trkpt>
      <trkpt lat="46.26721" lon="6.2593">
        <ele>471.38</ele>
        <time>2020-05-10T14:13:58Z</time>
      </trkpt>
      <trkpt lat="46.26824" lon="6.25703">
        <ele>471.38</ele>
        <time>2020-05-10T14:14:08Z</time>
      </trkpt>
      <trkpt lat="46.26827" lon="6.25671">
        <ele>471.38</ele>
        <time>2020-05-10T14:15:11Z</time>
      </trkpt>
      <trkpt lat="46.26834" lon="6.25643">
        <ele>471.38</ele>
        <time>2020-05-10T14:15:19Z</time>
      </trkpt>
      <trkpt lat="46.26842" lon="6.25612">
        <ele>471.38</ele>
        <time>2020-05-10T14:15:26Z</time>
      </trkpt>
      <trkpt lat="46.26845" lon="6.25585">
        <ele>471.38</ele>
        <time>2020-05-10T14:15:33Z</time>
      </trkpt>
      <trkpt lat="46.26862" lon="6.25584">
        <ele>471.38</ele>
        <time>2020-05-10T14:15:40Z</time>
      </trkpt>
      <trkpt lat="46.26879" lon="6.25593">
        <ele>471.38</ele>
        <time>2020-05-10T14:15:46Z</time>
      </trkpt>
      <trkpt lat="46.26897" lon="6.25603">
        <ele>471.38</ele>
        <time>2020-05-10T14:15:51Z</time>
      </trkpt>
      <trkpt lat="46.26915" lon="6.25613">
        <ele>471.38</ele>
        <time>2020-05-10T14:15:56Z</time>
      </trkpt>
      <trkpt lat="46.26933" lon="6.25625">
        <ele>471.38</ele>
        <time>2020-05-10T14:16:02Z</time>
      </trkpt>
      <trkpt lat="46.26949" lon="6.25644">
        <ele>471.38</ele>
        <time>2020-05-10T14:16:07Z</time>
      </trkpt>
      <trkpt lat="46.26961" lon="6.25664">
        <ele>471.38</ele>
        <time>2020-05-10T14:16:12Z</time>
      </trkpt>
      <trkpt lat="46.26973" lon="6.25681">
        <ele>471.38</ele>
        <time>2020-05-10T14:16:19Z</time>
      </trkpt>
      <trkpt lat="46.26986" lon="6.25661">
        <ele>471.38</ele>
        <time>2020-05-10T14:16:24Z</time>
      </trkpt>
      <trkpt lat="46.26997" lon="6.25636">
        <ele>471.38</ele>
        <time>2020-05-10T14:16:29Z</time>
      </trkpt>
      <trkpt lat="46.27005" lon="6.25607">
        <ele>471.38</ele>
        <time>2020-05-10T14:16:34Z</time>
      </trkpt>
      <trkpt lat="46.27011" lon="6.25582">
        <ele>471.38</ele>
        <time>2020-05-10T14:16:39Z</time>
      </trkpt>
      <trkpt lat="46.27021" lon="6.25559">
        <ele>471.38</ele>
        <time>2020-05-10T14:16:45Z</time>
      </trkpt>
      <trkpt lat="46.2703" lon="6.25534">
        <ele>471.38</ele>
        <time>2020-05-10T14:16:50Z</time>
      </trkpt>
      <trkpt lat="46.27038" lon="6.25508">
        <ele>471.38</ele>
        <time>2020-05-10T14:16:54Z</time>
      </trkpt>
      <trkpt lat="46.27051" lon="6.2548">
        <ele>471.38</ele>
        <time>2020-05-10T14:16:59Z</time>
      </trkpt>
      <trkpt lat="46.27069" lon="6.25481">
        <ele>471.38</ele>
        <time>2020-05-10T14:17:04Z</time>
      </trkpt>
      <trkpt lat="46.27088" lon="6.25491">
        <ele>471.38</ele>
        <time>2020-05-10T14:17:10Z</time>
      </trkpt>
      <trkpt lat="46.27109" lon="6.25504">
        <ele>471.38</ele>
        <time>2020-05-10T14:17:15Z</time>
      </trkpt>
      <trkpt lat="46.27125" lon="6.25515">
        <ele>471.38</ele>
        <time>2020-05-10T14:17:19Z</time>
      </trkpt>
      <trkpt lat="46.27142" lon="6.25527">
        <ele>471.38</ele>
        <time>2020-05-10T14:17:23Z</time>
      </trkpt>
      <trkpt lat="46.27158" lon="6.25542">
        <ele>471.38</ele>
        <time>2020-05-10T14:17:27Z</time>
      </trkpt>
      <trkpt lat="46.27177" lon="6.25557">
        <ele>471.38</ele>
        <time>2020-05-10T14:17:32Z</time>
      </trkpt>
      <trkpt lat="46.27195" lon="6.25569">
        <ele>471.38</ele>
        <time>2020-05-10T14:17:37Z</time>
      </trkpt>
      <trkpt lat="46.27214" lon="6.25581">
        <ele>471.38</ele>
        <time>2020-05-10T14:17:42Z</time>
      </trkpt>
      <trkpt lat="46.27236" lon="6.25593">
        <ele>471.38</ele>
        <time>2020-05-10T14:17:47Z</time>
      </trkpt>
      <trkpt lat="46.27254" lon="6.25602">
        <ele>471.38</ele>
        <time>2020-05-10T14:17:52Z</time>
      </trkpt>
      <trkpt lat="46.27274" lon="6.25614">
        <ele>471.38</ele>
        <time>2020-05-10T14:17:57Z</time>
      </trkpt>
      <trkpt lat="46.27293" lon="6.25627">
        <ele>471.38</ele>
        <time>2020-05-10T14:18:01Z</time>
      </trkpt>
      <trkpt lat="46.27313" lon="6.25636">
        <ele>471.38</ele>
        <time>2020-05-10T14:18:05Z</time>
      </trkpt>
      <trkpt lat="46.27335" lon="6.25649">
        <ele>471.38</ele>
        <time>2020-05-10T14:18:09Z</time>
      </trkpt>
      <trkpt lat="46.27355" lon="6.25661">
        <ele>471.38</ele>
        <time>2020-05-10T14:18:13Z</time>
      </trkpt>
      <trkpt lat="46.27373" lon="6.25673">
        <ele>471.38</ele>
        <time>2020-05-10T14:18:17Z</time>
      </trkpt>
      <trkpt lat="46.27389" lon="6.2568">
        <ele>471.38</ele>
        <time>2020-05-10T14:18:21Z</time>
      </trkpt>
      <trkpt lat="46.27408" lon="6.25693">
        <ele>471.38</ele>
        <time>2020-05-10T14:18:25Z</time>
      </trkpt>
      <trkpt lat="46.27428" lon="6.25709">
        <ele>471.38</ele>
        <time>2020-05-10T14:18:30Z</time>
      </trkpt>
      <trkpt lat="46.27446" lon="6.25722">
        <ele>471.38</ele>
        <time>2020-05-10T14:18:34Z</time>
      </trkpt>
      <trkpt lat="46.27466" lon="6.25736">
        <ele>471.38</ele>
        <time>2020-05-10T14:18:38Z</time>
      </trkpt>
      <trkpt lat="46.27485" lon="6.25751">
        <ele>471.38</ele>
        <time>2020-05-10T14:18:42Z</time>
      </trkpt>
      <trkpt lat="46.27501" lon="6.25765">
        <ele>471.38</ele>
        <time>2020-05-10T14:18:46Z</time>
      </trkpt>
      <trkpt lat="46.27519" lon="6.25779">
        <ele>471.38</ele>
        <time>2020-05-10T14:18:51Z</time>
      </trkpt>
      <trkpt lat="46.27541" lon="6.25791">
        <ele>471.38</ele>
        <time>2020-05-10T14:18:55Z</time>
      </trkpt>
      <trkpt lat="46.27563" lon="6.25805">
        <ele>471.38</ele>
        <time>2020-05-10T14:18:59Z</time>
      </trkpt>
      <trkpt lat="46.2758" lon="6.25817">
        <ele>471.38</ele>
        <time>2020-05-10T14:19:02Z</time>
      </trkpt>
      <trkpt lat="46.27598" lon="6.25829">
        <ele>471.38</ele>
        <time>2020-05-10T14:19:05Z</time>
      </trkpt>
      <trkpt lat="46.27616" lon="6.25842">
        <ele>471.38</ele>
        <time>2020-05-10T14:19:08Z</time>
      </trkpt>
      <trkpt lat="46.27634" lon="6.25854">
        <ele>471.38</ele>
        <time>2020-05-10T14:19:11Z</time>
      </trkpt>
      <trkpt lat="46.27652" lon="6.25867">
        <ele>471.38</ele>
        <time>2020-05-10T14:19:14Z</time>
      </trkpt>
      <trkpt lat="46.2767" lon="6.25879">
        <ele>471.38</ele>
        <time>2020-05-10T14:19:17Z</time>
      </trkpt>
      <trkpt lat="46.27687" lon="6.25891">
        <ele>471.38</ele>
        <time>2020-05-10T14:19:20Z</time>
      </trkpt>
      <trkpt lat="46.27703" lon="6.25903">
        <ele>471.38</ele>
        <time>2020-05-10T14:19:23Z</time>
      </trkpt>
      <trkpt lat="46.27724" lon="6.25921">
        <ele>471.38</ele>
        <time>2020-05-10T14:19:27Z</time>
      </trkpt>
      <trkpt lat="46.2774" lon="6.25932">
        <ele>471.38</ele>
        <time>2020-05-10T14:19:30Z</time>
      </trkpt>
      <trkpt lat="46.27762" lon="6.25947">
        <ele>471.38</ele>
        <time>2020-05-10T14:19:34Z</time>
      </trkpt>
      <trkpt lat="46.27782" lon="6.25957">
        <ele>471.38</ele>
        <time>2020-05-10T14:19:38Z</time>
      </trkpt>
      <trkpt lat="46.27798" lon="6.25946">
        <ele>471.38</ele>
        <time>2020-05-10T14:19:43Z</time>
      </trkpt>
      <trkpt lat="46.27809" lon="6.25919">
        <ele>471.38</ele>
        <time>2020-05-10T14:19:48Z</time>
      </trkpt>
      <trkpt lat="46.27818" lon="6.2589">
        <ele>471.38</ele>
        <time>2020-05-10T14:19:52Z</time>
      </trkpt>
      <trkpt lat="46.27825" lon="6.25858">
        <ele>468.35</ele>
        <time>2020-05-10T14:19:56Z</time>
      </trkpt>
      <trkpt lat="46.27832" lon="6.25829">
        <ele>467.36</ele>
        <time>2020-05-10T14:20:00Z</time>
      </trkpt>
      <trkpt lat="46.2784" lon="6.25801">
        <ele>467.35</ele>
        <time>2020-05-10T14:20:04Z</time>
      </trkpt>
      <trkpt lat="46.27848" lon="6.25772">
        <ele>467.51</ele>
        <time>2020-05-10T14:20:08Z</time>
      </trkpt>
      <trkpt lat="46.27857" lon="6.25744">
        <ele>467.65</ele>
        <time>2020-05-10T14:20:12Z</time>
      </trkpt>
      <trkpt lat="46.27866" lon="6.25715">
        <ele>467.65</ele>
        <time>2020-05-10T14:20:16Z</time>
      </trkpt>
      <trkpt lat="46.27876" lon="6.25685">
        <ele>467.7</ele>
        <time>2020-05-10T14:20:20Z</time>
      </trkpt>
      <trkpt lat="46.27885" lon="6.25657">
        <ele>467.73</ele>
        <time>2020-05-10T14:20:24Z</time>
      </trkpt>
      <trkpt lat="46.27893" lon="6.2563">
        <ele>467.51</ele>
        <time>2020-05-10T14:20:28Z</time>
      </trkpt>
      <trkpt lat="46.27901" lon="6.25603">
        <ele>467.35</ele>
        <time>2020-05-10T14:20:32Z</time>
      </trkpt>
      <trkpt lat="46.27909" lon="6.25579">
        <ele>467.23</ele>
        <time>2020-05-10T14:20:36Z</time>
      </trkpt>
      <trkpt lat="46.27916" lon="6.25554">
        <ele>467.12</ele>
        <time>2020-05-10T14:20:40Z</time>
      </trkpt>
      <trkpt lat="46.27923" lon="6.25529">
        <ele>467.08</ele>
        <time>2020-05-10T14:20:44Z</time>
      </trkpt>
      <trkpt lat="46.27931" lon="6.25505">
        <ele>466.78</ele>
        <time>2020-05-10T14:20:50Z</time>
      </trkpt>
      <trkpt lat="46.27939" lon="6.25476">
        <ele>466.71</ele>
        <time>2020-05-10T14:20:55Z</time>
      </trkpt>
      <trkpt lat="46.27943" lon="6.25446">
        <ele>467.1</ele>
        <time>2020-05-10T14:21:00Z</time>
      </trkpt>
      <trkpt lat="46.27947" lon="6.25417">
        <ele>467.1</ele>
        <time>2020-05-10T14:21:06Z</time>
      </trkpt>
      <trkpt lat="46.27957" lon="6.25391">
        <ele>467.1</ele>
        <time>2020-05-10T14:21:11Z</time>
      </trkpt>
      <trkpt lat="46.27965" lon="6.25368">
        <ele>467.1</ele>
        <time>2020-05-10T14:21:15Z</time>
      </trkpt>
      <trkpt lat="46.27973" lon="6.25342">
        <ele>467.1</ele>
        <time>2020-05-10T14:21:19Z</time>
      </trkpt>
      <trkpt lat="46.27983" lon="6.25314">
        <ele>467.1</ele>
        <time>2020-05-10T14:21:24Z</time>
      </trkpt>
      <trkpt lat="46.27992" lon="6.25288">
        <ele>467.1</ele>
        <time>2020-05-10T14:21:28Z</time>
      </trkpt>
      <trkpt lat="46.28004" lon="6.2526">
        <ele>467.1</ele>
        <time>2020-05-10T14:21:32Z</time>
      </trkpt>
      <trkpt lat="46.28017" lon="6.25235">
        <ele>467.1</ele>
        <time>2020-05-10T14:21:36Z</time>
      </trkpt>
      <trkpt lat="46.28031" lon="6.25216">
        <ele>467.1</ele>
        <time>2020-05-10T14:21:42Z</time>
      </trkpt>
      <trkpt lat="46.28046" lon="6.25192">
        <ele>467.1</ele>
        <time>2020-05-10T14:21:47Z</time>
      </trkpt>
      <trkpt lat="46.28058" lon="6.25169">
        <ele>467.1</ele>
        <time>2020-05-10T14:21:50Z</time>
      </trkpt>
      <trkpt lat="46.2807" lon="6.25145">
        <ele>467.1</ele>
        <time>2020-05-10T14:21:53Z</time>
      </trkpt>
      <trkpt lat="46.28081" lon="6.25123">
        <ele>467.1</ele>
        <time>2020-05-10T14:21:56Z</time>
      </trkpt>
      <trkpt lat="46.28094" lon="6.25096">
        <ele>467.1</ele>
        <time>2020-05-10T14:22:00Z</time>
      </trkpt>
      <trkpt lat="46.28105" lon="6.25071">
        <ele>467.1</ele>
        <time>2020-05-10T14:22:04Z</time>
      </trkpt>
      <trkpt lat="46.28117" lon="6.25041">
        <ele>467.1</ele>
        <time>2020-05-10T14:22:08Z</time>
      </trkpt>
      <trkpt lat="46.28126" lon="6.25017">
        <ele>467.1</ele>
        <time>2020-05-10T14:22:11Z</time>
      </trkpt>
      <trkpt lat="46.28138" lon="6.24988">
        <ele>467.1</ele>
        <time>2020-05-10T14:22:15Z</time>
      </trkpt>
      <trkpt lat="46.2815" lon="6.24963">
        <ele>467.1</ele>
        <time>2020-05-10T14:22:19Z</time>
      </trkpt>
      <trkpt lat="46.28159" lon="6.2494">
        <ele>467.1</ele>
        <time>2020-05-10T14:22:23Z</time>
      </trkpt>
      <trkpt lat="46.28168" lon="6.24914">
        <ele>467.1</ele>
        <time>2020-05-10T14:22:28Z</time>
      </trkpt>
      <trkpt lat="46.28179" lon="6.24892">
        <ele>467.1</ele>
        <time>2020-05-10T14:22:33Z</time>
      </trkpt>
      <trkpt lat="46.28198" lon="6.24876">
        <ele>467.1</ele>
        <time>2020-05-10T14:22:38Z</time>
      </trkpt>
      <trkpt lat="46.28219" lon="6.24871">
        <ele>467.1</ele>
        <time>2020-05-10T14:22:42Z</time>
      </trkpt>
      <trkpt lat="46.2824" lon="6.24876">
        <ele>467.1</ele>
        <time>2020-05-10T14:22:46Z</time>
      </trkpt>
      <trkpt lat="46.28259" lon="6.24884">
        <ele>467.1</ele>
        <time>2020-05-10T14:22:50Z</time>
      </trkpt>
      <trkpt lat="46.28278" lon="6.24899">
        <ele>467.1</ele>
        <time>2020-05-10T14:22:55Z</time>
      </trkpt>
      <trkpt lat="46.28295" lon="6.24921">
        <ele>467.1</ele>
        <time>2020-05-10T14:23:00Z</time>
      </trkpt>
      <trkpt lat="46.28311" lon="6.24945">
        <ele>467.1</ele>
        <time>2020-05-10T14:23:04Z</time>
      </trkpt>
      <trkpt lat="46.28331" lon="6.24971">
        <ele>467.1</ele>
        <time>2020-05-10T14:23:08Z</time>
      </trkpt>
      <trkpt lat="46.28347" lon="6.24994">
        <ele>467.1</ele>
        <time>2020-05-10T14:23:11Z</time>
      </trkpt>
      <trkpt lat="46.28364" lon="6.25013">
        <ele>467.1</ele>
        <time>2020-05-10T14:23:14Z</time>
      </trkpt>
      <trkpt lat="46.28384" lon="6.25026">
        <ele>467.1</ele>
        <time>2020-05-10T14:23:17Z</time>
      </trkpt>
      <trkpt lat="46.28403" lon="6.25034">
        <ele>467.1</ele>
        <time>2020-05-10T14:23:20Z</time>
      </trkpt>
      <trkpt lat="46.28421" lon="6.25042">
        <ele>467.1</ele>
        <time>2020-05-10T14:23:23Z</time>
      </trkpt>
      <trkpt lat="46.28445" lon="6.25051">
        <ele>467.1</ele>
        <time>2020-05-10T14:23:27Z</time>
      </trkpt>
      <trkpt lat="46.28466" lon="6.25061">
        <ele>467.1</ele>
        <time>2020-05-10T14:23:31Z</time>
      </trkpt>
      <trkpt lat="46.28489" lon="6.25075">
        <ele>467.1</ele>
        <time>2020-05-10T14:23:35Z</time>
      </trkpt>
      <trkpt lat="46.28504" lon="6.25085">
        <ele>467.1</ele>
        <time>2020-05-10T14:23:38Z</time>
      </trkpt>
      <trkpt lat="46.28525" lon="6.25099">
        <ele>467.1</ele>
        <time>2020-05-10T14:23:42Z</time>
      </trkpt>
      <trkpt lat="46.28541" lon="6.25114">
        <ele>467.1</ele>
        <time>2020-05-10T14:23:45Z</time>
      </trkpt>
      <trkpt lat="46.28556" lon="6.2513">
        <ele>467.1</ele>
        <time>2020-05-10T14:23:48Z</time>
      </trkpt>
      <trkpt lat="46.28574" lon="6.25153">
        <ele>467.1</ele>
        <time>2020-05-10T14:23:52Z</time>
      </trkpt>
      <trkpt lat="46.28592" lon="6.2518">
        <ele>467.1</ele>
        <time>2020-05-10T14:23:56Z</time>
      </trkpt>
      <trkpt lat="46.28605" lon="6.25201">
        <ele>467.1</ele>
        <time>2020-05-10T14:23:59Z</time>
      </trkpt>
      <trkpt lat="46.28618" lon="6.2522">
        <ele>467.1</ele>
        <time>2020-05-10T14:24:02Z</time>
      </trkpt>
      <trkpt lat="46.28631" lon="6.25237">
        <ele>467.1</ele>
        <time>2020-05-10T14:24:05Z</time>
      </trkpt>
      <trkpt lat="46.28645" lon="6.25257">
        <ele>467.1</ele>
        <time>2020-05-10T14:24:08Z</time>
      </trkpt>
      <trkpt lat="46.2866" lon="6.25277">
        <ele>467.1</ele>
        <time>2020-05-10T14:24:11Z</time>
      </trkpt>
      <trkpt lat="46.28676" lon="6.25296">
        <ele>467.1</ele>
        <time>2020-05-10T14:24:14Z</time>
      </trkpt>
      <trkpt lat="46.28691" lon="6.25314">
        <ele>467.1</ele>
        <time>2020-05-10T14:24:17Z</time>
      </trkpt>
      <trkpt lat="46.28705" lon="6.25331">
        <ele>467.1</ele>
        <time>2020-05-10T14:24:20Z</time>
      </trkpt>
      <trkpt lat="46.28723" lon="6.25353">
        <ele>467.1</ele>
        <time>2020-05-10T14:24:24Z</time>
      </trkpt>
      <trkpt lat="46.2874" lon="6.25376">
        <ele>467.1</ele>
        <time>2020-05-10T14:24:28Z</time>
      </trkpt>
      <trkpt lat="46.28757" lon="6.25399">
        <ele>467.1</ele>
        <time>2020-05-10T14:24:32Z</time>
      </trkpt>
      <trkpt lat="46.2877" lon="6.25419">
        <ele>467.1</ele>
        <time>2020-05-10T14:24:35Z</time>
      </trkpt>
      <trkpt lat="46.28787" lon="6.25444">
        <ele>467.1</ele>
        <time>2020-05-10T14:24:39Z</time>
      </trkpt>
      <trkpt lat="46.28802" lon="6.25467">
        <ele>467.1</ele>
        <time>2020-05-10T14:24:43Z</time>
      </trkpt>
      <trkpt lat="46.28819" lon="6.25492">
        <ele>467.1</ele>
        <time>2020-05-10T14:24:47Z</time>
      </trkpt>
      <trkpt lat="46.28833" lon="6.25515">
        <ele>467.1</ele>
        <time>2020-05-10T14:24:50Z</time>
      </trkpt>
      <trkpt lat="46.28844" lon="6.25541">
        <ele>467.1</ele>
        <time>2020-05-10T14:24:53Z</time>
      </trkpt>
      <trkpt lat="46.28854" lon="6.25567">
        <ele>467.1</ele>
        <time>2020-05-10T14:24:56Z</time>
      </trkpt>
      <trkpt lat="46.28866" lon="6.25589">
        <ele>467.1</ele>
        <time>2020-05-10T14:24:59Z</time>
      </trkpt>
      <trkpt lat="46.28882" lon="6.25605">
        <ele>461.31</ele>
        <time>2020-05-10T14:25:02Z</time>
      </trkpt>
      <trkpt lat="46.28897" lon="6.2562">
        <ele>461.4</ele>
        <time>2020-05-10T14:25:05Z</time>
      </trkpt>
      <trkpt lat="46.28913" lon="6.25635">
        <ele>461.33</ele>
        <time>2020-05-10T14:25:08Z</time>
      </trkpt>
      <trkpt lat="46.28931" lon="6.25653">
        <ele>461.02</ele>
        <time>2020-05-10T14:25:12Z</time>
      </trkpt>
      <trkpt lat="46.28945" lon="6.25645">
        <ele>460.43</ele>
        <time>2020-05-10T14:25:17Z</time>
      </trkpt>
      <trkpt lat="46.28956" lon="6.25624">
        <ele>459.93</ele>
        <time>2020-05-10T14:25:21Z</time>
      </trkpt>
      <trkpt lat="46.28969" lon="6.25599">
        <ele>459.69</ele>
        <time>2020-05-10T14:25:25Z</time>
      </trkpt>
      <trkpt lat="46.28971" lon="6.25571">
        <ele>459.24</ele>
        <time>2020-05-10T14:25:31Z</time>
      </trkpt>
      <trkpt lat="46.28986" lon="6.25562">
        <ele>458.85</ele>
        <time>2020-05-10T14:25:36Z</time>
      </trkpt>
      <trkpt lat="46.29005" lon="6.25557">
        <ele>458.76</ele>
        <time>2020-05-10T14:25:40Z</time>
      </trkpt>
      <trkpt lat="46.29026" lon="6.25552">
        <ele>458.63</ele>
        <time>2020-05-10T14:25:45Z</time>
      </trkpt>
      <trkpt lat="46.29045" lon="6.25543">
        <ele>458.15</ele>
        <time>2020-05-10T14:25:50Z</time>
      </trkpt>
      <trkpt lat="46.29066" lon="6.25538">
        <ele>456.61</ele>
        <time>2020-05-10T14:25:57Z</time>
      </trkpt>
      <trkpt lat="46.29099" lon="6.25545">
        <ele>452.86</ele>
        <time>2020-05-10T14:26:10Z</time>
      </trkpt>
      <trkpt lat="46.29131" lon="6.25551">
        <ele>448.47</ele>
        <time>2020-05-10T14:26:23Z</time>
      </trkpt>
      <trkpt lat="46.29161" lon="6.25553">
        <ele>446.23</ele>
        <time>2020-05-10T14:27:14Z</time>
      </trkpt>
      <trkpt lat="46.29201" lon="6.25574">
        <ele>453.23</ele>
        <time>2020-05-10T14:27:56Z</time>
      </trkpt>
      <trkpt lat="46.29222" lon="6.25549">
        <ele>453.88</ele>
        <time>2020-05-10T14:28:11Z</time>
      </trkpt>
      <trkpt lat="46.29247" lon="6.25535">
        <ele>455.79</ele>
        <time>2020-05-10T14:28:25Z</time>
      </trkpt>
      <trkpt lat="46.29268" lon="6.25523">
        <ele>456.19</ele>
        <time>2020-05-10T14:28:35Z</time>
      </trkpt>
      <trkpt lat="46.29291" lon="6.25515">
        <ele>456.28</ele>
        <time>2020-05-10T14:28:45Z</time>
      </trkpt>
      <trkpt lat="46.29316" lon="6.25522">
        <ele>455.73</ele>
        <time>2020-05-10T14:28:56Z</time>
      </trkpt>
      <trkpt lat="46.29339" lon="6.25529">
        <ele>455.95</ele>
        <time>2020-05-10T14:29:03Z</time>
      </trkpt>
      <trkpt lat="46.29363" lon="6.25532">
        <ele>455.89</ele>
        <time>2020-05-10T14:29:10Z</time>
      </trkpt>
      <trkpt lat="46.29383" lon="6.2554">
        <ele>455.81</ele>
        <time>2020-05-10T14:29:14Z</time>
      </trkpt>
      <trkpt lat="46.29406" lon="6.25551">
        <ele>455.08</ele>
        <time>2020-05-10T14:29:20Z</time>
      </trkpt>
      <trkpt lat="46.2943" lon="6.25565">
        <ele>455.01</ele>
        <time>2020-05-10T14:29:27Z</time>
      </trkpt>
      <trkpt lat="46.29452" lon="6.25568">
        <ele>455.16</ele>
        <time>2020-05-10T14:29:35Z</time>
      </trkpt>
      <trkpt lat="46.29479" lon="6.25565">
        <ele>455.73</ele>
        <time>2020-05-10T14:29:43Z</time>
      </trkpt>
      <trkpt lat="46.29502" lon="6.2557">
        <ele>455.76</ele>
        <time>2020-05-10T14:29:50Z</time>
      </trkpt>
      <trkpt lat="46.29526" lon="6.25577">
        <ele>455.82</ele>
        <time>2020-05-10T14:29:58Z</time>
      </trkpt>
      <trkpt lat="46.29548" lon="6.25584">
        <ele>455.91</ele>
        <time>2020-05-10T14:30:05Z</time>
      </trkpt>
      <trkpt lat="46.29576" lon="6.25593">
        <ele>455.89</ele>
        <time>2020-05-10T14:30:11Z</time>
      </trkpt>
      <trkpt lat="46.29601" lon="6.25611">
        <ele>455.89</ele>
        <time>2020-05-10T14:30:17Z</time>
      </trkpt>
      <trkpt lat="46.2962" lon="6.25628">
        <ele>455.89</ele>
        <time>2020-05-10T14:30:23Z</time>
      </trkpt>
      <trkpt lat="46.29628" lon="6.25654">
        <ele>455.89</ele>
        <time>2020-05-10T14:30:29Z</time>
      </trkpt>
      <trkpt lat="46.29646" lon="6.2566">
        <ele>455.89</ele>
        <time>2020-05-10T14:30:37Z</time>
      </trkpt>
      <trkpt lat="46.29661" lon="6.25641">
        <ele>455.89</ele>
        <time>2020-05-10T14:30:42Z</time>
      </trkpt>
      <trkpt lat="46.29675" lon="6.25618">
        <ele>455.89</ele>
        <time>2020-05-10T14:30:46Z</time>
      </trkpt>
      <trkpt lat="46.29689" lon="6.25595">
        <ele>455.89</ele>
        <time>2020-05-10T14:30:50Z</time>
      </trkpt>
      <trkpt lat="46.29701" lon="6.25574">
        <ele>455.89</ele>
        <time>2020-05-10T14:30:54Z</time>
      </trkpt>
      <trkpt lat="46.29714" lon="6.25551">
        <ele>455.89</ele>
        <time>2020-05-10T14:30:59Z</time>
      </trkpt>
      <trkpt lat="46.29726" lon="6.25528">
        <ele>455.89</ele>
        <time>2020-05-10T14:31:04Z</time>
      </trkpt>
      <trkpt lat="46.29739" lon="6.25502">
        <ele>460.3</ele>
        <time>2020-05-10T14:31:09Z</time>
      </trkpt>
      <trkpt lat="46.29752" lon="6.25478">
        <ele>460.7</ele>
        <time>2020-05-10T14:31:14Z</time>
      </trkpt>
      <trkpt lat="46.29764" lon="6.25454">
        <ele>461</ele>
        <time>2020-05-10T14:31:20Z</time>
      </trkpt>
      <trkpt lat="46.29776" lon="6.25429">
        <ele>461.03</ele>
        <time>2020-05-10T14:31:27Z</time>
      </trkpt>
      <trkpt lat="46.29791" lon="6.25402">
        <ele>461.02</ele>
        <time>2020-05-10T14:31:32Z</time>
      </trkpt>
      <trkpt lat="46.29806" lon="6.25381">
        <ele>460.9</ele>
        <time>2020-05-10T14:31:36Z</time>
      </trkpt>
      <trkpt lat="46.29819" lon="6.25356">
        <ele>460.57</ele>
        <time>2020-05-10T14:31:41Z</time>
      </trkpt>
      <trkpt lat="46.29834" lon="6.25334">
        <ele>460.28</ele>
        <time>2020-05-10T14:31:46Z</time>
      </trkpt>
      <trkpt lat="46.2985" lon="6.25312">
        <ele>459.88</ele>
        <time>2020-05-10T14:31:51Z</time>
      </trkpt>
      <trkpt lat="46.29865" lon="6.25293">
        <ele>459.35</ele>
        <time>2020-05-10T14:31:55Z</time>
      </trkpt>
      <trkpt lat="46.29881" lon="6.25273">
        <ele>458.88</ele>
        <time>2020-05-10T14:31:59Z</time>
      </trkpt>
      <trkpt lat="46.29896" lon="6.25251">
        <ele>458.33</ele>
        <time>2020-05-10T14:32:03Z</time>
      </trkpt>
      <trkpt lat="46.29911" lon="6.25229">
        <ele>457.61</ele>
        <time>2020-05-10T14:32:07Z</time>
      </trkpt>
      <trkpt lat="46.29926" lon="6.25205">
        <ele>456.9</ele>
        <time>2020-05-10T14:32:11Z</time>
      </trkpt>
      <trkpt lat="46.29939" lon="6.25176">
        <ele>455.86</ele>
        <time>2020-05-10T14:32:15Z</time>
      </trkpt>
      <trkpt lat="46.29948" lon="6.2515">
        <ele>454.7</ele>
        <time>2020-05-10T14:32:18Z</time>
      </trkpt>
      <trkpt lat="46.29959" lon="6.2512">
        <ele>453.63</ele>
        <time>2020-05-10T14:32:21Z</time>
      </trkpt>
      <trkpt lat="46.29971" lon="6.25096">
        <ele>452.13</ele>
        <time>2020-05-10T14:32:24Z</time>
      </trkpt>
      <trkpt lat="46.29985" lon="6.25067">
        <ele>449.49</ele>
        <time>2020-05-10T14:32:28Z</time>
      </trkpt>
      <trkpt lat="46.29996" lon="6.25043">
        <ele>447.61</ele>
        <time>2020-05-10T14:32:31Z</time>
      </trkpt>
      <trkpt lat="46.30006" lon="6.25015">
        <ele>445.04</ele>
        <time>2020-05-10T14:32:35Z</time>
      </trkpt>
      <trkpt lat="46.30009" lon="6.24982">
        <ele>442.5</ele>
        <time>2020-05-10T14:32:39Z</time>
      </trkpt>
      <trkpt lat="46.30006" lon="6.24951">
        <ele>440.53</ele>
        <time>2020-05-10T14:32:42Z</time>
      </trkpt>
      <trkpt lat="46.3" lon="6.24919">
        <ele>438.73</ele>
        <time>2020-05-10T14:32:45Z</time>
      </trkpt>
      <trkpt lat="46.29997" lon="6.24884">
        <ele>436.59</ele>
        <time>2020-05-10T14:32:49Z</time>
      </trkpt>
      <trkpt lat="46.29999" lon="6.24857">
        <ele>433.26</ele>
        <time>2020-05-10T14:32:56Z</time>
      </trkpt>
      <trkpt lat="46.30012" lon="6.24824">
        <ele>431.74</ele>
        <time>2020-05-10T14:33:02Z</time>
      </trkpt>
      <trkpt lat="46.30033" lon="6.24792">
        <ele>430.92</ele>
        <time>2020-05-10T14:33:06Z</time>
      </trkpt>
      <trkpt lat="46.30052" lon="6.24771">
        <ele>429.73</ele>
        <time>2020-05-10T14:33:10Z</time>
      </trkpt>
      <trkpt lat="46.3007" lon="6.24756">
        <ele>428.91</ele>
        <time>2020-05-10T14:33:15Z</time>
      </trkpt>
      <trkpt lat="46.30094" lon="6.24735">
        <ele>427.89</ele>
        <time>2020-05-10T14:34:46Z</time>
      </trkpt>
      <trkpt lat="46.30117" lon="6.24733">
        <ele>428.42</ele>
        <time>2020-05-10T14:34:54Z</time>
      </trkpt>
      <trkpt lat="46.30138" lon="6.24721">
        <ele>429.32</ele>
        <time>2020-05-10T14:34:59Z</time>
      </trkpt>
      <trkpt lat="46.30159" lon="6.2471">
        <ele>430.63</ele>
        <time>2020-05-10T14:35:04Z</time>
      </trkpt>
      <trkpt lat="46.30178" lon="6.24702">
        <ele>432.3</ele>
        <time>2020-05-10T14:35:09Z</time>
      </trkpt>
      <trkpt lat="46.30193" lon="6.24683">
        <ele>434.78</ele>
        <time>2020-05-10T14:35:15Z</time>
      </trkpt>
      <trkpt lat="46.30195" lon="6.24655">
        <ele>436.58</ele>
        <time>2020-05-10T14:35:20Z</time>
      </trkpt>
      <trkpt lat="46.30195" lon="6.24625">
        <ele>437.88</ele>
        <time>2020-05-10T14:35:25Z</time>
      </trkpt>
      <trkpt lat="46.3019" lon="6.24597">
        <ele>438.43</ele>
        <time>2020-05-10T14:35:31Z</time>
      </trkpt>
      <trkpt lat="46.30186" lon="6.24566">
        <ele>438.21</ele>
        <time>2020-05-10T14:35:38Z</time>
      </trkpt>
      <trkpt lat="46.30182" lon="6.24537">
        <ele>437.21</ele>
        <time>2020-05-10T14:35:45Z</time>
      </trkpt>
      <trkpt lat="46.30168" lon="6.24519">
        <ele>435.04</ele>
        <time>2020-05-10T14:35:51Z</time>
      </trkpt>
      <trkpt lat="46.30148" lon="6.24502">
        <ele>431.99</ele>
        <time>2020-05-10T14:35:58Z</time>
      </trkpt>
      <trkpt lat="46.30128" lon="6.24493">
        <ele>430.23</ele>
        <time>2020-05-10T14:36:04Z</time>
      </trkpt>
      <trkpt lat="46.30109" lon="6.24483">
        <ele>429.66</ele>
        <time>2020-05-10T14:36:10Z</time>
      </trkpt>
      <trkpt lat="46.30111" lon="6.24454">
        <ele>428.19</ele>
        <time>2020-05-10T14:36:21Z</time>
      </trkpt>
      <trkpt lat="46.30121" lon="6.24421">
        <ele>427.41</ele>
        <time>2020-05-10T14:36:25Z</time>
      </trkpt>
      <trkpt lat="46.30129" lon="6.24392">
        <ele>424.03</ele>
        <time>2020-05-10T14:36:35Z</time>
      </trkpt>
      <trkpt lat="46.30139" lon="6.24362">
        <ele>423.32</ele>
        <time>2020-05-10T14:36:41Z</time>
      </trkpt>
      <trkpt lat="46.30148" lon="6.24334">
        <ele>422.66</ele>
        <time>2020-05-10T14:36:45Z</time>
      </trkpt>
      <trkpt lat="46.30157" lon="6.24302">
        <ele>421.77</ele>
        <time>2020-05-10T14:36:49Z</time>
      </trkpt>
      <trkpt lat="46.30167" lon="6.24271">
        <ele>420.25</ele>
        <time>2020-05-10T14:36:55Z</time>
      </trkpt>
      <trkpt lat="46.30173" lon="6.24239">
        <ele>419.35</ele>
        <time>2020-05-10T14:37:01Z</time>
      </trkpt>
      <trkpt lat="46.3018" lon="6.24212">
        <ele>418.93</ele>
        <time>2020-05-10T14:37:07Z</time>
      </trkpt>
      <trkpt lat="46.30174" lon="6.24189">
        <ele>418.58</ele>
        <time>2020-05-10T14:37:16Z</time>
      </trkpt>
      <trkpt lat="46.30152" lon="6.24184">
        <ele>418.1</ele>
        <time>2020-05-10T14:37:24Z</time>
      </trkpt>
      <trkpt lat="46.30132" lon="6.24184">
        <ele>417.62</ele>
        <time>2020-05-10T14:37:31Z</time>
      </trkpt>
      <trkpt lat="46.30111" lon="6.24185">
        <ele>417.6</ele>
        <time>2020-05-10T14:37:37Z</time>
      </trkpt>
      <trkpt lat="46.30084" lon="6.24191">
        <ele>418.11</ele>
        <time>2020-05-10T14:38:23Z</time>
      </trkpt>
      <trkpt lat="46.3006" lon="6.24194">
        <ele>418.11</ele>
        <time>2020-05-10T14:38:42Z</time>
      </trkpt>
      <trkpt lat="46.30038" lon="6.242">
        <ele>418.11</ele>
        <time>2020-05-10T14:39:00Z</time>
      </trkpt>
      <trkpt lat="46.30016" lon="6.24207">
        <ele>418.11</ele>
        <time>2020-05-10T14:39:19Z</time>
      </trkpt>
      <trkpt lat="46.29998" lon="6.24215">
        <ele>418.11</ele>
        <time>2020-05-10T14:39:34Z</time>
      </trkpt>
      <trkpt lat="46.29998" lon="6.24214">
        <ele>418.11</ele>
        <time>2020-05-10T14:42:07Z</time>
      </trkpt>
      <trkpt lat="46.30017" lon="6.24205">
        <ele>418.11</ele>
        <time>2020-05-10T14:42:21Z</time>
      </trkpt>
      <trkpt lat="46.30036" lon="6.24199">
        <ele>418.11</ele>
        <time>2020-05-10T14:42:37Z</time>
      </trkpt>
      <trkpt lat="46.30055" lon="6.24194">
        <ele>418.11</ele>
        <time>2020-05-10T14:42:52Z</time>
      </trkpt>
      <trkpt lat="46.30074" lon="6.24188">
        <ele>418.11</ele>
        <time>2020-05-10T14:43:11Z</time>
      </trkpt>
      <trkpt lat="46.30096" lon="6.24183">
        <ele>418.11</ele>
        <time>2020-05-10T14:43:37Z</time>
      </trkpt>
      <trkpt lat="46.30118" lon="6.24177">
        <ele>418.11</ele>
        <time>2020-05-10T14:44:20Z</time>
      </trkpt>
      <trkpt lat="46.30136" lon="6.24175">
        <ele>418.11</ele>
        <time>2020-05-10T14:44:26Z</time>
      </trkpt>
      <trkpt lat="46.30156" lon="6.24176">
        <ele>418.11</ele>
        <time>2020-05-10T14:44:32Z</time>
      </trkpt>
      <trkpt lat="46.30175" lon="6.24178">
        <ele>418.11</ele>
        <time>2020-05-10T14:44:40Z</time>
      </trkpt>
      <trkpt lat="46.30183" lon="6.24203">
        <ele>418.11</ele>
        <time>2020-05-10T14:44:50Z</time>
      </trkpt>
      <trkpt lat="46.3018" lon="6.24235">
        <ele>418.11</ele>
        <time>2020-05-10T14:44:55Z</time>
      </trkpt>
      <trkpt lat="46.30175" lon="6.24265">
        <ele>418.11</ele>
        <time>2020-05-10T14:45:00Z</time>
      </trkpt>
      <trkpt lat="46.3017" lon="6.24292">
        <ele>418.11</ele>
        <time>2020-05-10T14:45:05Z</time>
      </trkpt>
      <trkpt lat="46.30163" lon="6.24318">
        <ele>418.11</ele>
        <time>2020-05-10T14:45:10Z</time>
      </trkpt>
      <trkpt lat="46.30157" lon="6.24348">
        <ele>418.11</ele>
        <time>2020-05-10T14:45:16Z</time>
      </trkpt>
      <trkpt lat="46.30147" lon="6.24373">
        <ele>422.56</ele>
        <time>2020-05-10T14:45:22Z</time>
      </trkpt>
      <trkpt lat="46.30133" lon="6.24401">
        <ele>423.78</ele>
        <time>2020-05-10T14:45:44Z</time>
      </trkpt>
      <trkpt lat="46.30126" lon="6.2443">
        <ele>424.49</ele>
        <time>2020-05-10T14:45:51Z</time>
      </trkpt>
      <trkpt lat="46.30119" lon="6.24459">
        <ele>426.12</ele>
        <time>2020-05-10T14:45:58Z</time>
      </trkpt>
      <trkpt lat="46.30104" lon="6.24478">
        <ele>428.14</ele>
        <time>2020-05-10T14:46:06Z</time>
      </trkpt>
      <trkpt lat="46.30084" lon="6.24499">
        <ele>430.16</ele>
        <time>2020-05-10T14:46:15Z</time>
      </trkpt>
      <trkpt lat="46.30073" lon="6.24524">
        <ele>432.33</ele>
        <time>2020-05-10T14:46:23Z</time>
      </trkpt>
      <trkpt lat="46.30069" lon="6.24555">
        <ele>434.75</ele>
        <time>2020-05-10T14:46:31Z</time>
      </trkpt>
      <trkpt lat="46.30049" lon="6.24579">
        <ele>437.26</ele>
        <time>2020-05-10T14:46:38Z</time>
      </trkpt>
      <trkpt lat="46.3003" lon="6.246">
        <ele>440.82</ele>
        <time>2020-05-10T14:46:48Z</time>
      </trkpt>
      <trkpt lat="46.30002" lon="6.24617">
        <ele>443.17</ele>
        <time>2020-05-10T14:46:56Z</time>
      </trkpt>
      <trkpt lat="46.29972" lon="6.2462">
        <ele>444.56</ele>
        <time>2020-05-10T14:47:03Z</time>
      </trkpt>
      <trkpt lat="46.29951" lon="6.24624">
        <ele>445.37</ele>
        <time>2020-05-10T14:47:09Z</time>
      </trkpt>
      <trkpt lat="46.2993" lon="6.24627">
        <ele>445.9</ele>
        <time>2020-05-10T14:47:15Z</time>
      </trkpt>
      <trkpt lat="46.29907" lon="6.24627">
        <ele>446.4</ele>
        <time>2020-05-10T14:47:21Z</time>
      </trkpt>
      <trkpt lat="46.29887" lon="6.24623">
        <ele>446.93</ele>
        <time>2020-05-10T14:47:26Z</time>
      </trkpt>
      <trkpt lat="46.29863" lon="6.24613">
        <ele>447.4</ele>
        <time>2020-05-10T14:47:32Z</time>
      </trkpt>
      <trkpt lat="46.29841" lon="6.246">
        <ele>447.86</ele>
        <time>2020-05-10T14:47:38Z</time>
      </trkpt>
      <trkpt lat="46.29822" lon="6.24587">
        <ele>448.49</ele>
        <time>2020-05-10T14:47:43Z</time>
      </trkpt>
      <trkpt lat="46.29803" lon="6.24578">
        <ele>449.08</ele>
        <time>2020-05-10T14:47:48Z</time>
      </trkpt>
      <trkpt lat="46.29783" lon="6.2457">
        <ele>449.65</ele>
        <time>2020-05-10T14:47:53Z</time>
      </trkpt>
      <trkpt lat="46.29764" lon="6.24566">
        <ele>450.01</ele>
        <time>2020-05-10T14:47:58Z</time>
      </trkpt>
      <trkpt lat="46.29742" lon="6.24562">
        <ele>450.52</ele>
        <time>2020-05-10T14:48:03Z</time>
      </trkpt>
      <trkpt lat="46.29718" lon="6.24556">
        <ele>450.87</ele>
        <time>2020-05-10T14:48:08Z</time>
      </trkpt>
      <trkpt lat="46.29698" lon="6.24554">
        <ele>450.83</ele>
        <time>2020-05-10T14:48:12Z</time>
      </trkpt>
      <trkpt lat="46.29681" lon="6.24566">
        <ele>450.77</ele>
        <time>2020-05-10T14:48:18Z</time>
      </trkpt>
      <trkpt lat="46.29667" lon="6.24585">
        <ele>450.98</ele>
        <time>2020-05-10T14:48:23Z</time>
      </trkpt>
      <trkpt lat="46.2965" lon="6.24609">
        <ele>451.39</ele>
        <time>2020-05-10T14:48:28Z</time>
      </trkpt>
      <trkpt lat="46.29636" lon="6.24629">
        <ele>451.82</ele>
        <time>2020-05-10T14:48:32Z</time>
      </trkpt>
      <trkpt lat="46.29619" lon="6.24647">
        <ele>452.4</ele>
        <time>2020-05-10T14:48:36Z</time>
      </trkpt>
      <trkpt lat="46.29603" lon="6.24665">
        <ele>452.96</ele>
        <time>2020-05-10T14:48:40Z</time>
      </trkpt>
      <trkpt lat="46.29585" lon="6.24685">
        <ele>453.37</ele>
        <time>2020-05-10T14:48:44Z</time>
      </trkpt>
      <trkpt lat="46.29565" lon="6.24703">
        <ele>453.79</ele>
        <time>2020-05-10T14:48:48Z</time>
      </trkpt>
      <trkpt lat="46.29545" lon="6.24715">
        <ele>454.26</ele>
        <time>2020-05-10T14:48:52Z</time>
      </trkpt>
      <trkpt lat="46.29523" lon="6.2472">
        <ele>454.5</ele>
        <time>2020-05-10T14:48:57Z</time>
      </trkpt>
      <trkpt lat="46.29504" lon="6.24722">
        <ele>454.76</ele>
        <time>2020-05-10T14:49:01Z</time>
      </trkpt>
      <trkpt lat="46.29485" lon="6.24721">
        <ele>455.26</ele>
        <time>2020-05-10T14:49:05Z</time>
      </trkpt>
      <trkpt lat="46.29465" lon="6.24714">
        <ele>455.68</ele>
        <time>2020-05-10T14:49:09Z</time>
      </trkpt>
      <trkpt lat="46.29445" lon="6.24703">
        <ele>456.04</ele>
        <time>2020-05-10T14:49:13Z</time>
      </trkpt>
      <trkpt lat="46.29425" lon="6.24691">
        <ele>456.33</ele>
        <time>2020-05-10T14:49:18Z</time>
      </trkpt>
      <trkpt lat="46.29407" lon="6.24677">
        <ele>456.22</ele>
        <time>2020-05-10T14:49:26Z</time>
      </trkpt>
      <trkpt lat="46.29392" lon="6.2466">
        <ele>456.21</ele>
        <time>2020-05-10T14:49:31Z</time>
      </trkpt>
      <trkpt lat="46.29375" lon="6.24643">
        <ele>456.24</ele>
        <time>2020-05-10T14:49:35Z</time>
      </trkpt>
      <trkpt lat="46.29356" lon="6.24624">
        <ele>456.25</ele>
        <time>2020-05-10T14:49:39Z</time>
      </trkpt>
      <trkpt lat="46.29339" lon="6.24604">
        <ele>456.25</ele>
        <time>2020-05-10T14:49:43Z</time>
      </trkpt>
      <trkpt lat="46.2932" lon="6.24584">
        <ele>456.13</ele>
        <time>2020-05-10T14:49:47Z</time>
      </trkpt>
      <trkpt lat="46.29305" lon="6.24567">
        <ele>456.14</ele>
        <time>2020-05-10T14:49:50Z</time>
      </trkpt>
      <trkpt lat="46.2929" lon="6.24549">
        <ele>456.21</ele>
        <time>2020-05-10T14:49:53Z</time>
      </trkpt>
      <trkpt lat="46.29277" lon="6.2453">
        <ele>456.17</ele>
        <time>2020-05-10T14:49:56Z</time>
      </trkpt>
      <trkpt lat="46.29261" lon="6.24509">
        <ele>456</ele>
        <time>2020-05-10T14:50:00Z</time>
      </trkpt>
      <trkpt lat="46.29244" lon="6.24493">
        <ele>455.63</ele>
        <time>2020-05-10T14:50:04Z</time>
      </trkpt>
      <trkpt lat="46.29225" lon="6.24478">
        <ele>455.46</ele>
        <time>2020-05-10T14:50:08Z</time>
      </trkpt>
      <trkpt lat="46.29205" lon="6.24464">
        <ele>455.34</ele>
        <time>2020-05-10T14:50:12Z</time>
      </trkpt>
      <trkpt lat="46.29183" lon="6.24449">
        <ele>455.15</ele>
        <time>2020-05-10T14:50:16Z</time>
      </trkpt>
      <trkpt lat="46.29167" lon="6.24435">
        <ele>455.15</ele>
        <time>2020-05-10T14:50:19Z</time>
      </trkpt>
      <trkpt lat="46.29152" lon="6.24419">
        <ele>455.25</ele>
        <time>2020-05-10T14:50:22Z</time>
      </trkpt>
      <trkpt lat="46.29137" lon="6.24403">
        <ele>455.3</ele>
        <time>2020-05-10T14:50:25Z</time>
      </trkpt>
      <trkpt lat="46.29122" lon="6.24388">
        <ele>455.7</ele>
        <time>2020-05-10T14:50:28Z</time>
      </trkpt>
      <trkpt lat="46.29102" lon="6.2437">
        <ele>455.7</ele>
        <time>2020-05-10T14:50:32Z</time>
      </trkpt>
      <trkpt lat="46.29083" lon="6.24356">
        <ele>455.7</ele>
        <time>2020-05-10T14:50:36Z</time>
      </trkpt>
      <trkpt lat="46.29065" lon="6.2434">
        <ele>455.7</ele>
        <time>2020-05-10T14:50:40Z</time>
      </trkpt>
      <trkpt lat="46.29047" lon="6.24325">
        <ele>455.7</ele>
        <time>2020-05-10T14:50:44Z</time>
      </trkpt>
      <trkpt lat="46.29028" lon="6.24311">
        <ele>455.7</ele>
        <time>2020-05-10T14:50:48Z</time>
      </trkpt>
      <trkpt lat="46.2901" lon="6.24297">
        <ele>455.7</ele>
        <time>2020-05-10T14:50:52Z</time>
      </trkpt>
      <trkpt lat="46.28991" lon="6.24286">
        <ele>455.7</ele>
        <time>2020-05-10T14:50:56Z</time>
      </trkpt>
      <trkpt lat="46.28973" lon="6.24278">
        <ele>455.7</ele>
        <time>2020-05-10T14:51:00Z</time>
      </trkpt>
      <trkpt lat="46.28953" lon="6.24268">
        <ele>455.7</ele>
        <time>2020-05-10T14:51:05Z</time>
      </trkpt>
      <trkpt lat="46.28933" lon="6.24257">
        <ele>455.7</ele>
        <time>2020-05-10T14:51:10Z</time>
      </trkpt>
      <trkpt lat="46.28914" lon="6.24246">
        <ele>455.7</ele>
        <time>2020-05-10T14:51:15Z</time>
      </trkpt>
      <trkpt lat="46.28896" lon="6.24236">
        <ele>455.7</ele>
        <time>2020-05-10T14:51:20Z</time>
      </trkpt>
      <trkpt lat="46.28877" lon="6.24226">
        <ele>455.7</ele>
        <time>2020-05-10T14:51:25Z</time>
      </trkpt>
      <trkpt lat="46.28857" lon="6.24216">
        <ele>461.33</ele>
        <time>2020-05-10T14:51:30Z</time>
      </trkpt>
      <trkpt lat="46.28838" lon="6.24206">
        <ele>461.63</ele>
        <time>2020-05-10T14:51:35Z</time>
      </trkpt>
      <trkpt lat="46.28818" lon="6.24194">
        <ele>462.28</ele>
        <time>2020-05-10T14:51:40Z</time>
      </trkpt>
      <trkpt lat="46.28799" lon="6.24184">
        <ele>463.1</ele>
        <time>2020-05-10T14:51:45Z</time>
      </trkpt>
      <trkpt lat="46.28779" lon="6.24172">
        <ele>463.65</ele>
        <time>2020-05-10T14:51:50Z</time>
      </trkpt>
      <trkpt lat="46.2876" lon="6.24163">
        <ele>464.11</ele>
        <time>2020-05-10T14:51:54Z</time>
      </trkpt>
      <trkpt lat="46.28742" lon="6.24154">
        <ele>464.58</ele>
        <time>2020-05-10T14:51:58Z</time>
      </trkpt>
      <trkpt lat="46.28724" lon="6.24144">
        <ele>464.9</ele>
        <time>2020-05-10T14:52:03Z</time>
      </trkpt>
      <trkpt lat="46.28705" lon="6.24137">
        <ele>465.22</ele>
        <time>2020-05-10T14:52:08Z</time>
      </trkpt>
      <trkpt lat="46.28687" lon="6.24127">
        <ele>465.6</ele>
        <time>2020-05-10T14:52:13Z</time>
      </trkpt>
      <trkpt lat="46.28666" lon="6.24119">
        <ele>466.08</ele>
        <time>2020-05-10T14:52:18Z</time>
      </trkpt>
      <trkpt lat="46.28645" lon="6.2411">
        <ele>466.59</ele>
        <time>2020-05-10T14:52:23Z</time>
      </trkpt>
      <trkpt lat="46.28625" lon="6.24106">
        <ele>466.86</ele>
        <time>2020-05-10T14:52:28Z</time>
      </trkpt>
      <trkpt lat="46.28607" lon="6.241">
        <ele>467.01</ele>
        <time>2020-05-10T14:52:32Z</time>
      </trkpt>
      <trkpt lat="46.28589" lon="6.24095">
        <ele>467.23</ele>
        <time>2020-05-10T14:52:36Z</time>
      </trkpt>
      <trkpt lat="46.28568" lon="6.24087">
        <ele>467.7</ele>
        <time>2020-05-10T14:52:41Z</time>
      </trkpt>
      <trkpt lat="46.28549" lon="6.24077">
        <ele>467.89</ele>
        <time>2020-05-10T14:52:46Z</time>
      </trkpt>
      <trkpt lat="46.28531" lon="6.24064">
        <ele>467.86</ele>
        <time>2020-05-10T14:52:50Z</time>
      </trkpt>
      <trkpt lat="46.28511" lon="6.24047">
        <ele>467.85</ele>
        <time>2020-05-10T14:52:54Z</time>
      </trkpt>
      <trkpt lat="46.28492" lon="6.24027">
        <ele>467.81</ele>
        <time>2020-05-10T14:52:58Z</time>
      </trkpt>
      <trkpt lat="46.28476" lon="6.2401">
        <ele>467.71</ele>
        <time>2020-05-10T14:53:02Z</time>
      </trkpt>
      <trkpt lat="46.28459" lon="6.23995">
        <ele>467.51</ele>
        <time>2020-05-10T14:53:07Z</time>
      </trkpt>
      <trkpt lat="46.28442" lon="6.24004">
        <ele>467.17</ele>
        <time>2020-05-10T14:53:13Z</time>
      </trkpt>
      <trkpt lat="46.28424" lon="6.24024">
        <ele>466.41</ele>
        <time>2020-05-10T14:53:18Z</time>
      </trkpt>
      <trkpt lat="46.28403" lon="6.24041">
        <ele>465.51</ele>
        <time>2020-05-10T14:53:22Z</time>
      </trkpt>
      <trkpt lat="46.28384" lon="6.24059">
        <ele>464.51</ele>
        <time>2020-05-10T14:53:26Z</time>
      </trkpt>
      <trkpt lat="46.2837" lon="6.24071">
        <ele>460.74</ele>
        <time>2020-05-10T14:53:41Z</time>
      </trkpt>
      <trkpt lat="46.28352" lon="6.24079">
        <ele>458.53</ele>
        <time>2020-05-10T14:54:30Z</time>
      </trkpt>
      <trkpt lat="46.28348" lon="6.24069">
        <ele>457.69</ele>
        <time>2020-05-10T14:55:18Z</time>
      </trkpt>
      <trkpt lat="46.2836" lon="6.24091">
        <ele>460</ele>
        <time>2020-05-10T14:55:40Z</time>
      </trkpt>
      <trkpt lat="46.28351" lon="6.2412">
        <ele>459.98</ele>
        <time>2020-05-10T14:55:47Z</time>
      </trkpt>
      <trkpt lat="46.28335" lon="6.2415">
        <ele>460.06</ele>
        <time>2020-05-10T14:55:53Z</time>
      </trkpt>
      <trkpt lat="46.28312" lon="6.24174">
        <ele>460.74</ele>
        <time>2020-05-10T14:55:59Z</time>
      </trkpt>
      <trkpt lat="46.28296" lon="6.24195">
        <ele>461.51</ele>
        <time>2020-05-10T14:56:04Z</time>
      </trkpt>
      <trkpt lat="46.2828" lon="6.24213">
        <ele>462.41</ele>
        <time>2020-05-10T14:56:09Z</time>
      </trkpt>
      <trkpt lat="46.28262" lon="6.24231">
        <ele>463.34</ele>
        <time>2020-05-10T14:56:14Z</time>
      </trkpt>
      <trkpt lat="46.28245" lon="6.24248">
        <ele>464.09</ele>
        <time>2020-05-10T14:56:19Z</time>
      </trkpt>
      <trkpt lat="46.28228" lon="6.24268">
        <ele>464.76</ele>
        <time>2020-05-10T14:56:24Z</time>
      </trkpt>
      <trkpt lat="46.28214" lon="6.24289">
        <ele>465.45</ele>
        <time>2020-05-10T14:56:30Z</time>
      </trkpt>
      <trkpt lat="46.28199" lon="6.24308">
        <ele>465.62</ele>
        <time>2020-05-10T14:56:35Z</time>
      </trkpt>
      <trkpt lat="46.28183" lon="6.24327">
        <ele>465.66</ele>
        <time>2020-05-10T14:56:39Z</time>
      </trkpt>
      <trkpt lat="46.28168" lon="6.24345">
        <ele>465.79</ele>
        <time>2020-05-10T14:56:43Z</time>
      </trkpt>
      <trkpt lat="46.28148" lon="6.24362">
        <ele>465.89</ele>
        <time>2020-05-10T14:56:48Z</time>
      </trkpt>
      <trkpt lat="46.28126" lon="6.24352">
        <ele>466.18</ele>
        <time>2020-05-10T14:56:53Z</time>
      </trkpt>
      <trkpt lat="46.2811" lon="6.24334">
        <ele>466.64</ele>
        <time>2020-05-10T14:56:57Z</time>
      </trkpt>
      <trkpt lat="46.28091" lon="6.24322">
        <ele>466.79</ele>
        <time>2020-05-10T14:57:01Z</time>
      </trkpt>
      <trkpt lat="46.28071" lon="6.2432">
        <ele>466.88</ele>
        <time>2020-05-10T14:57:05Z</time>
      </trkpt>
      <trkpt lat="46.2805" lon="6.24328">
        <ele>466.88</ele>
        <time>2020-05-10T14:57:10Z</time>
      </trkpt>
      <trkpt lat="46.28032" lon="6.24334">
        <ele>466.69</ele>
        <time>2020-05-10T14:57:16Z</time>
      </trkpt>
      <trkpt lat="46.28014" lon="6.2434">
        <ele>466.17</ele>
        <time>2020-05-10T14:57:26Z</time>
      </trkpt>
      <trkpt lat="46.27991" lon="6.24343">
        <ele>466.31</ele>
        <time>2020-05-10T14:57:32Z</time>
      </trkpt>
      <trkpt lat="46.27968" lon="6.24341">
        <ele>466.72</ele>
        <time>2020-05-10T14:57:36Z</time>
      </trkpt>
      <trkpt lat="46.27943" lon="6.24343">
        <ele>466.79</ele>
        <time>2020-05-10T14:57:40Z</time>
      </trkpt>
      <trkpt lat="46.27921" lon="6.24355">
        <ele>466.77</ele>
        <time>2020-05-10T14:57:44Z</time>
      </trkpt>
      <trkpt lat="46.27901" lon="6.24372">
        <ele>466.72</ele>
        <time>2020-05-10T14:57:48Z</time>
      </trkpt>
      <trkpt lat="46.27879" lon="6.2439">
        <ele>466.67</ele>
        <time>2020-05-10T14:57:52Z</time>
      </trkpt>
      <trkpt lat="46.27859" lon="6.2441">
        <ele>466.7</ele>
        <time>2020-05-10T14:57:56Z</time>
      </trkpt>
      <trkpt lat="46.27844" lon="6.24438">
        <ele>466.73</ele>
        <time>2020-05-10T14:58:00Z</time>
      </trkpt>
      <trkpt lat="46.27831" lon="6.24459">
        <ele>466.81</ele>
        <time>2020-05-10T14:58:03Z</time>
      </trkpt>
      <trkpt lat="46.27813" lon="6.24486">
        <ele>466.95</ele>
        <time>2020-05-10T14:58:07Z</time>
      </trkpt>
      <trkpt lat="46.27799" lon="6.24506">
        <ele>467.01</ele>
        <time>2020-05-10T14:58:10Z</time>
      </trkpt>
      <trkpt lat="46.27783" lon="6.24533">
        <ele>467.16</ele>
        <time>2020-05-10T14:58:14Z</time>
      </trkpt>
      <trkpt lat="46.27766" lon="6.24559">
        <ele>467.25</ele>
        <time>2020-05-10T14:58:18Z</time>
      </trkpt>
      <trkpt lat="46.27751" lon="6.24582">
        <ele>467.19</ele>
        <time>2020-05-10T14:58:22Z</time>
      </trkpt>
      <trkpt lat="46.27738" lon="6.24603">
        <ele>467.16</ele>
        <time>2020-05-10T14:58:26Z</time>
      </trkpt>
      <trkpt lat="46.27723" lon="6.24625">
        <ele>467.21</ele>
        <time>2020-05-10T14:58:30Z</time>
      </trkpt>
      <trkpt lat="46.27708" lon="6.24648">
        <ele>467.31</ele>
        <time>2020-05-10T14:58:34Z</time>
      </trkpt>
      <trkpt lat="46.27693" lon="6.24671">
        <ele>467.46</ele>
        <time>2020-05-10T14:58:38Z</time>
      </trkpt>
      <trkpt lat="46.27679" lon="6.24691">
        <ele>467.77</ele>
        <time>2020-05-10T14:58:42Z</time>
      </trkpt>
      <trkpt lat="46.27665" lon="6.24714">
        <ele>468.5</ele>
        <time>2020-05-10T14:58:47Z</time>
      </trkpt>
      <trkpt lat="46.27652" lon="6.2474">
        <ele>468.65</ele>
        <time>2020-05-10T14:58:52Z</time>
      </trkpt>
      <trkpt lat="46.27634" lon="6.2476">
        <ele>468.41</ele>
        <time>2020-05-10T14:58:57Z</time>
      </trkpt>
      <trkpt lat="46.27615" lon="6.24772">
        <ele>468.25</ele>
        <time>2020-05-10T14:59:01Z</time>
      </trkpt>
      <trkpt lat="46.27595" lon="6.24786">
        <ele>468.1</ele>
        <time>2020-05-10T14:59:05Z</time>
      </trkpt>
      <trkpt lat="46.27574" lon="6.24801">
        <ele>467.97</ele>
        <time>2020-05-10T14:59:09Z</time>
      </trkpt>
      <trkpt lat="46.27558" lon="6.24812">
        <ele>468.01</ele>
        <time>2020-05-10T14:59:12Z</time>
      </trkpt>
      <trkpt lat="46.2754" lon="6.24823">
        <ele>468.18</ele>
        <time>2020-05-10T14:59:15Z</time>
      </trkpt>
      <trkpt lat="46.27523" lon="6.24833">
        <ele>468.25</ele>
        <time>2020-05-10T14:59:18Z</time>
      </trkpt>
      <trkpt lat="46.275" lon="6.24845">
        <ele>468.26</ele>
        <time>2020-05-10T14:59:22Z</time>
      </trkpt>
      <trkpt lat="46.27482" lon="6.24853">
        <ele>468.26</ele>
        <time>2020-05-10T14:59:25Z</time>
      </trkpt>
      <trkpt lat="46.27464" lon="6.2486">
        <ele>468.31</ele>
        <time>2020-05-10T14:59:28Z</time>
      </trkpt>
      <trkpt lat="46.27442" lon="6.24872">
        <ele>468.41</ele>
        <time>2020-05-10T14:59:32Z</time>
      </trkpt>
      <trkpt lat="46.27425" lon="6.24892">
        <ele>468.37</ele>
        <time>2020-05-10T14:59:36Z</time>
      </trkpt>
      <trkpt lat="46.27411" lon="6.2492">
        <ele>468.41</ele>
        <time>2020-05-10T14:59:40Z</time>
      </trkpt>
      <trkpt lat="46.27405" lon="6.24949">
        <ele>468.55</ele>
        <time>2020-05-10T14:59:44Z</time>
      </trkpt>
      <trkpt lat="46.274" lon="6.2498">
        <ele>468.6</ele>
        <time>2020-05-10T14:59:48Z</time>
      </trkpt>
      <trkpt lat="46.27393" lon="6.25012">
        <ele>468.6</ele>
        <time>2020-05-10T14:59:52Z</time>
      </trkpt>
      <trkpt lat="46.27389" lon="6.25038">
        <ele>468.64</ele>
        <time>2020-05-10T14:59:55Z</time>
      </trkpt>
      <trkpt lat="46.27384" lon="6.25064">
        <ele>468.71</ele>
        <time>2020-05-10T14:59:58Z</time>
      </trkpt>
      <trkpt lat="46.27379" lon="6.25091">
        <ele>468.87</ele>
        <time>2020-05-10T15:00:01Z</time>
      </trkpt>
      <trkpt lat="46.27374" lon="6.25119">
        <ele>468.95</ele>
        <time>2020-05-10T15:00:04Z</time>
      </trkpt>
      <trkpt lat="46.27368" lon="6.25145">
        <ele>468.96</ele>
        <time>2020-05-10T15:00:07Z</time>
      </trkpt>
      <trkpt lat="46.27363" lon="6.25172">
        <ele>468.9</ele>
        <time>2020-05-10T15:00:10Z</time>
      </trkpt>
      <trkpt lat="46.27358" lon="6.252">
        <ele>468.87</ele>
        <time>2020-05-10T15:00:13Z</time>
      </trkpt>
      <trkpt lat="46.27351" lon="6.25232">
        <ele>468.99</ele>
        <time>2020-05-10T15:00:17Z</time>
      </trkpt>
      <trkpt lat="46.27342" lon="6.2526">
        <ele>468.93</ele>
        <time>2020-05-10T15:00:21Z</time>
      </trkpt>
      <trkpt lat="46.2733" lon="6.25285">
        <ele>468.97</ele>
        <time>2020-05-10T15:00:25Z</time>
      </trkpt>
      <trkpt lat="46.27316" lon="6.25314">
        <ele>469.12</ele>
        <time>2020-05-10T15:00:29Z</time>
      </trkpt>
      <trkpt lat="46.27306" lon="6.25345">
        <ele>469.37</ele>
        <time>2020-05-10T15:00:33Z</time>
      </trkpt>
      <trkpt lat="46.27297" lon="6.25377">
        <ele>469.47</ele>
        <time>2020-05-10T15:00:37Z</time>
      </trkpt>
      <trkpt lat="46.27289" lon="6.25407">
        <ele>469.61</ele>
        <time>2020-05-10T15:00:41Z</time>
      </trkpt>
      <trkpt lat="46.27284" lon="6.25433">
        <ele>470.12</ele>
        <time>2020-05-10T15:00:45Z</time>
      </trkpt>
      <trkpt lat="46.27278" lon="6.25458">
        <ele>470.47</ele>
        <time>2020-05-10T15:00:49Z</time>
      </trkpt>
      <trkpt lat="46.27272" lon="6.25483">
        <ele>470.99</ele>
        <time>2020-05-10T15:00:53Z</time>
      </trkpt>
      <trkpt lat="46.27264" lon="6.25508">
        <ele>471.35</ele>
        <time>2020-05-10T15:00:57Z</time>
      </trkpt>
      <trkpt lat="46.27259" lon="6.25536">
        <ele>471.7</ele>
        <time>2020-05-10T15:01:01Z</time>
      </trkpt>
      <trkpt lat="46.27253" lon="6.25564">
        <ele>472.21</ele>
        <time>2020-05-10T15:01:05Z</time>
      </trkpt>
      <trkpt lat="46.27247" lon="6.25588">
        <ele>472.55</ele>
        <time>2020-05-10T15:01:10Z</time>
      </trkpt>
      <trkpt lat="46.27225" lon="6.25585">
        <ele>473.01</ele>
        <time>2020-05-10T15:01:15Z</time>
      </trkpt>
      <trkpt lat="46.27203" lon="6.25572">
        <ele>473.2</ele>
        <time>2020-05-10T15:01:19Z</time>
      </trkpt>
      <trkpt lat="46.27183" lon="6.25564">
        <ele>473.3</ele>
        <time>2020-05-10T15:01:22Z</time>
      </trkpt>
      <trkpt lat="46.2716" lon="6.25551">
        <ele>473.19</ele>
        <time>2020-05-10T15:01:26Z</time>
      </trkpt>
      <trkpt lat="46.27141" lon="6.25538">
        <ele>472.91</ele>
        <time>2020-05-10T15:01:30Z</time>
      </trkpt>
      <trkpt lat="46.27122" lon="6.25523">
        <ele>472.75</ele>
        <time>2020-05-10T15:01:34Z</time>
      </trkpt>
      <trkpt lat="46.27102" lon="6.25508">
        <ele>472.7</ele>
        <time>2020-05-10T15:01:38Z</time>
      </trkpt>
      <trkpt lat="46.27085" lon="6.25494">
        <ele>472.54</ele>
        <time>2020-05-10T15:01:42Z</time>
      </trkpt>
      <trkpt lat="46.27067" lon="6.25483">
        <ele>472.16</ele>
        <time>2020-05-10T15:01:46Z</time>
      </trkpt>
      <trkpt lat="46.27047" lon="6.2548">
        <ele>471.75</ele>
        <time>2020-05-10T15:01:51Z</time>
      </trkpt>
      <trkpt lat="46.27038" lon="6.25502">
        <ele>471.22</ele>
        <time>2020-05-10T15:01:56Z</time>
      </trkpt>
      <trkpt lat="46.27034" lon="6.2553">
        <ele>471.34</ele>
        <time>2020-05-10T15:02:01Z</time>
      </trkpt>
      <trkpt lat="46.27026" lon="6.2556">
        <ele>471.92</ele>
        <time>2020-05-10T15:02:06Z</time>
      </trkpt>
      <trkpt lat="46.27018" lon="6.25587">
        <ele>472.28</ele>
        <time>2020-05-10T15:02:12Z</time>
      </trkpt>
      <trkpt lat="46.27012" lon="6.25614">
        <ele>472.52</ele>
        <time>2020-05-10T15:02:17Z</time>
      </trkpt>
      <trkpt lat="46.27009" lon="6.25642">
        <ele>473.09</ele>
        <time>2020-05-10T15:02:22Z</time>
      </trkpt>
      <trkpt lat="46.27" lon="6.25671">
        <ele>473.7</ele>
        <time>2020-05-10T15:02:27Z</time>
      </trkpt>
      <trkpt lat="46.26977" lon="6.25677">
        <ele>474.02</ele>
        <time>2020-05-10T15:02:33Z</time>
      </trkpt>
      <trkpt lat="46.26957" lon="6.25661">
        <ele>474.55</ele>
        <time>2020-05-10T15:02:38Z</time>
      </trkpt>
      <trkpt lat="46.26939" lon="6.25641">
        <ele>474.79</ele>
        <time>2020-05-10T15:02:42Z</time>
      </trkpt>
      <trkpt lat="46.26921" lon="6.25629">
        <ele>474.82</ele>
        <time>2020-05-10T15:02:45Z</time>
      </trkpt>
      <trkpt lat="46.269" lon="6.25617">
        <ele>474.74</ele>
        <time>2020-05-10T15:02:48Z</time>
      </trkpt>
      <trkpt lat="46.26881" lon="6.25606">
        <ele>474.45</ele>
        <time>2020-05-10T15:02:51Z</time>
      </trkpt>
      <trkpt lat="46.26864" lon="6.25596">
        <ele>474.01</ele>
        <time>2020-05-10T15:02:54Z</time>
      </trkpt>
      <trkpt lat="46.26844" lon="6.25591">
        <ele>473.56</ele>
        <time>2020-05-10T15:02:58Z</time>
      </trkpt>
      <trkpt lat="46.26841" lon="6.25611">
        <ele>473.18</ele>
        <time>2020-05-10T15:03:02Z</time>
      </trkpt>
      <trkpt lat="46.26835" lon="6.2564">
        <ele>472.39</ele>
        <time>2020-05-10T15:03:07Z</time>
      </trkpt>
      <trkpt lat="46.2683" lon="6.25666">
        <ele>472.13</ele>
        <time>2020-05-10T15:03:13Z</time>
      </trkpt>
      <trkpt lat="46.2683" lon="6.25687">
        <ele>471.1</ele>
        <time>2020-05-10T15:03:44Z</time>
      </trkpt>
      <trkpt lat="46.26817" lon="6.257">
        <ele>471.14</ele>
        <time>2020-05-10T15:32:36Z</time>
      </trkpt>
      <trkpt lat="46.26802" lon="6.2571">
        <ele>475.86</ele>
        <time>2020-05-10T15:33:29Z</time>
      </trkpt>
    </trkseg>
  </trk>
</gpx>